Weather at Tom Price Airport

Public forecast

Using degrees Celsius for public forecast. Weather courtesy of forecast.io.

Closest aviation weather report (METAR) to Tom Price Airport

Closest report is Port Hedland International Airport, 148.3 nm (274.7 km) NNE.

2024/05/21 01:00 (retrieved 23 minutes ago)

YPPD 210100Z AUTO 10021KT 9999 // NCD 24/M09 Q1019 RF000/0000

Closest aviation forecast (TAF) to Tom Price Airport

Forecast is more than 12 hours old.

Closest forecast is Koumac Airport, 2,581.6 nm (4,781.2 km) E.

2024/05/20 06:00 Ammendment (retrieved 19 hours ago)

TAF AMD NWWD 200500Z 2006/2106 CNL TAF AMD NWWK 200500Z 2006/2106 CNL